Time;durP1;ratioP1;P1;durP2;ratioP2;P2;SDS_P1;SDS_P2;PMS_P1;PMS_P2;Temp;Humidity;BMP_temperature;BMP_pressure;BME280_temperature;BME280_humidity;BME280_pressure;Samples;Min_cycle;Max_cycle;Signal;HPM_P1;HPM_P2
2021/10/19 00:01:26;;;;;;;20.08;13.13;;;;;;;13.12;89.66;101910.06;4930161;29;20062;-90
2021/10/19 00:03:52;;;;;;;17.33;12.93;;;;;;;13.12;89.45;101900.38;4929967;29;20118;-90
2021/10/19 00:06:17;;;;;;;16.98;13.35;;;;;;;13.13;89.87;101895.97;4958107;29;20055;-91
2021/10/19 00:08:43;;;;;;;16.52;12.20;;;;;;;13.16;89.71;101898.50;4935694;28;20400;-90
2021/10/19 00:11:09;;;;;;;15.57;13.05;;;;;;;13.15;89.61;101896.78;4944225;28;20047;-91
2021/10/19 00:13:36;;;;;;;17.58;12.63;;;;;;;13.15;89.53;101900.28;4960695;28;20279;-91
2021/10/19 00:16:02;;;;;;;14.95;12.73;;;;;;;13.15;89.86;101899.41;4942767;28;20347;-90
2021/10/19 00:18:28;;;;;;;21.85;12.68;;;;;;;13.17;89.87;101892.31;4945889;29;20619;-90
2021/10/19 00:20:53;;;;;;;14.80;13.05;;;;;;;13.18;89.87;101899.31;4931404;28;20359;-91
2021/10/19 00:23:19;;;;;;;16.55;13.23;;;;;;;13.17;89.99;101893.19;4943734;29;20039;-91
2021/10/19 00:25:45;;;;;;;17.48;12.95;;;;;;;13.17;89.77;101885.31;4957093;28;20035;-90
2021/10/19 00:28:10;;;;;;;15.38;12.18;;;;;;;13.18;89.69;101884.38;4941778;29;20110;-91
2021/10/19 00:30:36;;;;;;;18.58;13.18;;;;;;;13.18;89.76;101875.63;4951269;28;20034;-90
2021/10/19 00:33:01;;;;;;;14.65;12.18;;;;;;;13.19;90.00;101880.84;4923606;29;20047;-91
2021/10/19 00:35:27;;;;;;;14.25;12.70;;;;;;;13.20;89.95;101879.06;4943951;29;20058;-90
2021/10/19 00:37:52;;;;;;;16.70;13.60;;;;;;;13.21;90.12;101888.69;4948780;29;20036;-90
2021/10/19 00:40:18;;;;;;;19.88;13.73;;;;;;;13.20;90.46;101882.56;4937069;29;20050;-90
2021/10/19 00:42:44;;;;;;;15.50;13.30;;;;;;;13.20;90.64;101889.59;4948409;29;20073;-90
2021/10/19 00:45:09;;;;;;;22.25;14.27;;;;;;;13.19;90.91;101882.63;4944379;29;20073;-90
2021/10/19 00:47:35;;;;;;;20.48;14.00;;;;;;;13.17;91.30;101877.41;4944087;29;20026;-90
2021/10/19 00:50:00;;;;;;;25.17;15.27;;;;;;;13.18;91.57;101868.59;4944555;28;20493;-90
2021/10/19 00:52:26;;;;;;;19.40;15.60;;;;;;;13.17;92.02;101866.00;4950723;28;20109;-90
2021/10/19 00:54:52;;;;;;;22.80;15.82;;;;;;;13.16;92.24;101865.16;4948507;28;20247;-90
2021/10/19 00:57:17;;;;;;;22.50;15.48;;;;;;;13.16;92.30;101859.91;4932925;28;20165;-91
2021/10/19 00:59:43;;;;;;;22.35;15.30;;;;;;;13.14;92.38;101859.09;4936518;29;20255;-90
2021/10/19 01:05:05;;;;;;;21.33;15.00;;;;;;;13.14;92.64;101856.47;4949423;28;20067;-89
2021/10/19 01:07:30;;;;;;;18.40;14.82;;;;;;;13.13;92.83;101849.47;4944830;29;20358;-90
2021/10/19 01:09:55;;;;;;;25.48;15.57;;;;;;;13.13;92.91;101844.22;4944060;29;20282;-90
2021/10/19 01:12:21;;;;;;;28.77;16.75;;;;;;;13.13;93.08;101840.75;4942732;28;20027;-90
2021/10/19 01:14:46;;;;;;;20.42;15.07;;;;;;;13.15;93.49;101836.28;4941306;29;20119;-90
2021/10/19 01:17:12;;;;;;;20.67;15.82;;;;;;;13.12;93.48;101831.16;4956837;29;20197;-90
2021/10/19 01:19:37;;;;;;;21.77;15.85;;;;;;;13.13;93.84;101830.22;4940497;29;20040;-90
2021/10/19 01:22:04;;;;;;;27.60;16.67;;;;;;;13.11;93.74;101832.91;4959606;29;20047;-89
2021/10/19 01:24:30;;;;;;;26.48;17.58;;;;;;;13.12;93.78;101818.84;4943671;29;20219;-90
2021/10/19 01:26:55;;;;;;;24.83;16.88;;;;;;;13.12;93.86;101821.50;4959327;29;20331;-90
2021/10/19 01:29:21;;;;;;;27.95;17.20;;;;;;;13.13;94.24;101817.91;4955062;29;20043;-90
2021/10/19 01:31:50;;;;;;;23.55;16.45;;;;;;;13.13;94.43;101806.56;4941722;29;20323;-90
2021/10/19 01:34:15;;;;;;;24.83;16.73;;;;;;;13.13;94.25;101802.16;4952043;29;20070;-90
2021/10/19 01:36:41;;;;;;;21.48;15.68;;;;;;;13.12;94.54;101805.72;4958502;29;20047;-90
2021/10/19 01:39:06;;;;;;;24.50;16.35;;;;;;;13.13;94.56;101799.50;4952593;29;20226;-89
2021/10/19 01:41:32;;;;;;;23.02;15.35;;;;;;;13.15;94.57;101795.09;4969676;28;20038;-89
2021/10/19 01:43:57;;;;;;;22.40;16.13;;;;;;;13.15;94.82;101789.81;4940484;29;20047;-90
2021/10/19 01:46:23;;;;;;;21.58;16.00;;;;;;;13.15;94.57;101792.47;4931752;29;20278;-89
2021/10/19 01:48:48;;;;;;;27.17;15.77;;;;;;;13.19;94.85;101791.41;4938501;28;20066;-90
2021/10/19 01:51:14;;;;;;;20.85;16.50;;;;;;;13.20;95.18;101790.50;4939764;28;20366;-89
2021/10/19 01:53:40;;;;;;;21.08;15.90;;;;;;;13.20;95.14;101792.28;4944483;28;20039;-89
2021/10/19 01:56:05;;;;;;;23.02;15.80;;;;;;;13.21;95.16;101794.84;4957523;28;20035;-90
2021/10/19 01:58:31;;;;;;;21.58;15.45;;;;;;;13.22;95.04;101799.22;4956041;28;20027;-90
2021/10/19 02:00:56;;;;;;;25.30;17.15;;;;;;;13.23;95.10;101792.16;4939612;29;20346;-90
2021/10/19 02:03:22;;;;;;;23.30;16.33;;;;;;;13.24;95.09;101785.97;4957169;28;20039;-90
2021/10/19 02:05:47;;;;;;;22.30;16.77;;;;;;;13.24;95.28;101776.34;4958446;29;20475;-90
2021/10/19 02:08:13;;;;;;;26.65;17.00;;;;;;;13.25;95.17;101764.88;4935731;29;20035;-89
2021/10/19 02:10:38;;;;;;;23.02;16.92;;;;;;;13.26;95.04;101778.88;4975542;28;20346;-90
2021/10/19 02:13:05;;;;;;;27.27;19.17;;;;;;;13.27;94.92;101774.50;4958995;29;20038;-90
2021/10/19 02:15:31;;;;;;;25.27;17.15;;;;;;;13.27;95.06;101772.72;4925724;28;20274;-89
2021/10/19 02:17:57;;;;;;;21.73;16.40;;;;;;;13.28;95.21;101761.28;4910874;29;20070;-90
2021/10/19 02:20:22;;;;;;;24.98;18.05;;;;;;;13.28;95.12;101771.81;4932590;28;20022;-90
2021/10/19 02:22:49;;;;;;;27.10;18.85;;;;;;;13.29;94.97;101764.78;4932465;29;20072;-89
2021/10/19 02:25:14;;;;;;;29.38;20.23;;;;;;;13.30;95.27;101762.09;4940736;29;20059;-90
2021/10/19 02:27:39;;;;;;;25.85;19.60;;;;;;;13.31;95.20;101757.72;4942394;28;20065;-89
2021/10/19 02:30:07;;;;;;;26.98;20.15;;;;;;;13.32;95.58;101754.19;4931779;28;20026;-90
2021/10/19 02:32:32;;;;;;;28.95;20.63;;;;;;;13.34;95.51;101761.09;4965279;28;20037;-90
2021/10/19 02:34:58;;;;;;;27.48;20.17;;;;;;;13.35;95.62;101759.31;4936769;28;20030;-89
2021/10/19 02:37:23;;;;;;;25.45;19.52;;;;;;;13.35;95.37;101772.47;4907748;28;20040;-90
2021/10/19 02:39:48;;;;;;;28.83;20.20;;;;;;;13.35;95.42;101765.44;4932913;29;20031;-89
2021/10/19 02:42:14;;;;;;;28.63;20.20;;;;;;;13.37;95.48;101768.88;4948415;29;20170;-89
2021/10/19 02:44:40;;;;;;;33.35;20.58;;;;;;;13.38;95.68;101760.03;4960873;28;20031;-89
2021/10/19 02:47:05;;;;;;;31.40;21.10;;;;;;;13.39;95.71;101758.28;4933696;28;20043;-90
2021/10/19 02:49:31;;;;;;;30.90;21.80;;;;;;;13.40;95.71;101746.84;4933755;28;20038;-90
2021/10/19 02:51:57;;;;;;;29.70;21.00;;;;;;;13.39;95.63;101748.63;4930045;29;20035;-90
2021/10/19 02:54:22;;;;;;;28.65;20.50;;;;;;;13.39;95.58;101735.47;4946795;28;20242;-90
2021/10/19 02:56:47;;;;;;;28.60;20.67;;;;;;;13.40;95.51;101720.53;4931269;29;20040;-90
2021/10/19 02:59:13;;;;;;;34.65;19.88;;;;;;;13.41;95.60;101722.25;4933100;29;20078;-88
2021/10/19 03:01:38;;;;;;;33.05;21.58;;;;;;;13.41;95.91;101715.22;4926584;28;20045;-88
2021/10/19 03:04:04;;;;;;;28.95;21.20;;;;;;;13.40;95.84;101710.84;4946068;28;20051;-88
2021/10/19 03:06:29;;;;;;;32.47;22.05;;;;;;;13.41;95.84;101704.69;4915946;29;20047;-88
2021/10/19 03:08:56;;;;;;;31.20;21.20;;;;;;;13.42;95.96;101702.91;4937115;29;20202;-88
2021/10/19 03:11:22;;;;;;;32.60;22.08;;;;;;;13.43;95.95;101709.91;4934419;28;20226;-88
2021/10/19 03:13:47;;;;;;;35.17;22.55;;;;;;;13.45;95.85;101713.31;4950124;28;20114;-88
2021/10/19 03:16:13;;;;;;;32.35;21.27;;;;;;;13.43;96.06;101702.00;4914785;29;20043;-88
2021/10/19 03:18:38;;;;;;;28.00;20.58;;;;;;;13.46;96.31;101701.00;4929719;28;20354;-88
2021/10/19 03:21:05;;;;;;;31.48;21.08;;;;;;;13.44;96.14;101701.06;4977428;28;20042;-88
2021/10/19 03:23:30;;;;;;;30.90;22.02;;;;;;;13.46;96.11;101699.22;4911041;29;20191;-88
2021/10/19 03:25:55;;;;;;;32.13;21.23;;;;;;;13.46;96.09;101706.28;4934559;28;20031;-88
2021/10/19 03:28:21;;;;;;;33.17;21.63;;;;;;;13.47;96.36;101708.00;4954784;28;20038;-87
2021/10/19 03:30:46;;;;;;;30.98;21.55;;;;;;;13.45;96.27;101702.78;4951569;29;20038;-88
2021/10/19 03:33:12;;;;;;;30.27;20.75;;;;;;;13.46;96.21;101714.16;4946064;28;20034;-88
2021/10/19 03:35:37;;;;;;;31.02;21.50;;;;;;;13.47;96.32;101714.13;4920466;28;20038;-87
2021/10/19 03:38:03;;;;;;;31.13;21.42;;;;;;;13.49;96.24;101711.44;4932655;29;20346;-88
2021/10/19 03:40:28;;;;;;;31.85;20.77;;;;;;;13.48;96.53;101713.22;4944513;28;20113;-88
2021/10/19 03:42:54;;;;;;;30.73;20.95;;;;;;;13.49;96.40;101721.94;4963400;28;20349;-88
2021/10/19 03:45:19;;;;;;;30.05;19.65;;;;;;;13.49;96.39;101721.94;4932333;28;20050;-88
2021/10/19 03:47:45;;;;;;;29.52;20.73;;;;;;;13.49;96.37;101728.06;4952075;29;20071;-88
2021/10/19 03:50:11;;;;;;;30.60;20.00;;;;;;;13.49;96.21;101725.44;4967798;28;20278;-88
2021/10/19 03:52:36;;;;;;;29.48;19.55;;;;;;;13.50;96.59;101729.78;4966087;28;20041;-87
2021/10/19 03:55:03;;;;;;;26.60;19.48;;;;;;;13.51;96.38;101728.00;4962925;28;20034;-87
2021/10/19 03:57:28;;;;;;;29.80;18.85;;;;;;;13.50;96.47;101726.28;4947704;28;20034;-87
2021/10/19 03:59:54;;;;;;;23.42;17.80;;;;;;;13.52;96.46;101714.78;4953656;29;20061;-88
2021/10/19 04:02:19;;;;;;;26.02;18.70;;;;;;;13.51;96.35;101726.22;4950166;29;20030;-88
2021/10/19 04:04:44;;;;;;;27.23;18.20;;;;;;;13.53;96.63;101720.91;4954262;29;20232;-87
2021/10/19 04:07:11;;;;;;;23.15;16.88;;;;;;;13.53;96.55;101715.66;4928476;29;20023;-88
2021/10/19 04:09:37;;;;;;;25.73;17.20;;;;;;;13.54;96.60;101725.28;4974900;28;20082;-87
2021/10/19 04:12:02;;;;;;;21.77;17.02;;;;;;;13.54;96.56;101718.22;4947941;28;20035;-88
2021/10/19 04:14:28;;;;;;;23.23;17.02;;;;;;;13.54;96.91;101720.00;4925981;29;20058;-88
2021/10/19 04:16:53;;;;;;;22.88;16.13;;;;;;;13.55;96.78;101724.34;4930309;28;20042;-88
2021/10/19 04:19:19;;;;;;;24.23;16.23;;;;;;;13.54;96.65;101726.13;4945439;29;20335;-88
2021/10/19 04:21:48;;;;;;;22.98;16.35;;;;;;;13.55;96.65;101719.06;4944688;29;20128;-88
2021/10/19 04:24:16;;;;;;;;;;;;;;;13.55;96.65;101712.06;4946026;29;20414;-88
2021/10/19 04:26:42;;;;;;;22.10;15.95;;;;;;;13.56;96.93;101720.81;4960522;29;20138;-88
2021/10/19 04:29:08;;;;;;;18.55;15.43;;;;;;;13.56;96.75;101720.81;4928782;29;20031;-88
2021/10/19 04:31:36;;;;;;;20.58;16.15;;;;;;;13.55;96.93;101719.94;4934350;28;20050;-88
2021/10/19 04:34:02;;;;;;;22.38;15.02;;;;;;;13.56;97.13;101715.53;4952693;28;20041;-88
2021/10/19 04:36:27;;;;;;;21.77;15.75;;;;;;;13.57;96.94;101720.75;4944505;28;20054;-88
2021/10/19 04:38:53;;;;;;;19.05;14.80;;;;;;;13.57;97.27;101717.22;4943939;29;20106;-88
2021/10/19 04:41:18;;;;;;;18.63;14.73;;;;;;;13.59;97.19;101724.16;4952220;29;20035;-88
2021/10/19 04:43:44;;;;;;;20.75;15.80;;;;;;;13.59;97.37;101718.06;4944330;29;20039;-88
2021/10/19 04:46:09;;;;;;;18.92;15.38;;;;;;;13.58;97.18;101708.44;4927991;29;20079;-88
2021/10/19 04:48:35;;;;;;;18.98;14.55;;;;;;;13.59;97.28;101713.63;4943479;29;20164;-88
2021/10/19 04:51:00;;;;;;;19.98;15.73;;;;;;;13.59;97.23;101704.91;4956602;29;20035;-88
2021/10/19 04:53:26;;;;;;;25.35;16.65;;;;;;;13.60;97.29;101707.44;4962412;28;20045;-88
2021/10/19 04:55:51;;;;;;;25.85;17.80;;;;;;;13.59;97.58;101700.47;4930484;29;20124;-88
2021/10/19 04:58:17;;;;;;;24.92;17.63;;;;;;;13.61;97.28;101701.28;4943444;29;20045;-88
2021/10/19 05:00:43;;;;;;;21.38;15.93;;;;;;;13.60;97.32;101686.38;4943061;28;20035;-88
2021/10/19 05:03:09;;;;;;;23.00;16.60;;;;;;;13.60;97.36;101681.13;4941155;28;20309;-88
2021/10/19 05:05:34;;;;;;;23.65;17.13;;;;;;;13.61;97.58;101684.63;4958600;28;20330;-88
2021/10/19 05:08:00;;;;;;;23.92;17.08;;;;;;;13.61;97.47;101688.13;4946178;29;20034;-88
2021/10/19 05:10:25;;;;;;;27.98;17.58;;;;;;;13.62;97.61;101676.69;4958854;29;20051;-88
2021/10/19 05:12:51;;;;;;;21.42;16.73;;;;;;;13.64;97.77;101684.50;4927956;29;20031;-88
2021/10/19 05:15:16;;;;;;;25.25;17.38;;;;;;;13.65;97.37;101677.47;4938996;29;20262;-87
2021/10/19 05:17:44;;;;;;;27.38;18.35;;;;;;;13.64;97.64;101681.84;4953806;29;20035;-88
2021/10/19 05:20:09;;;;;;;24.13;18.42;;;;;;;13.66;97.59;101681.81;4948640;29;20150;-88
2021/10/19 05:22:35;;;;;;;28.05;19.05;;;;;;;13.66;97.47;101684.44;4940044;29;20902;-88
2021/10/19 05:25:00;;;;;;;29.10;18.77;;;;;;;13.66;97.87;101680.06;4940716;29;20039;-88
2021/10/19 05:27:26;;;;;;;29.70;19.40;;;;;;;13.66;97.70;101681.81;4944024;29;20226;-88
2021/10/19 05:29:51;;;;;;;27.65;19.25;;;;;;;13.66;97.72;101679.16;4947613;29;20334;-87
2021/10/19 05:32:17;;;;;;;29.98;19.55;;;;;;;13.65;97.87;101678.31;4958204;28;20047;-88
2021/10/19 05:34:42;;;;;;;29.15;21.35;;;;;;;13.65;97.74;101678.31;4927223;29;20019;-87
2021/10/19 05:37:08;;;;;;;28.90;20.95;;;;;;;13.66;97.56;101682.69;4958883;28;20551;-87
2021/10/19 05:39:33;;;;;;;34.88;21.88;;;;;;;13.67;97.65;101680.91;4937141;28;20032;-87
2021/10/19 05:41:59;;;;;;;34.15;22.08;;;;;;;13.68;97.87;101682.59;4952213;28;20052;-88
2021/10/19 05:44:25;;;;;;;34.90;22.23;;;;;;;13.69;97.94;101684.31;4953249;28;20059;-88
2021/10/19 05:46:51;;;;;;;38.42;23.85;;;;;;;13.69;97.81;101684.31;4925571;29;20106;-87
2021/10/19 05:49:16;;;;;;;37.72;24.55;;;;;;;13.72;97.71;101692.09;4956639;28;20242;-89
2021/10/19 05:51:42;;;;;;;33.75;22.67;;;;;;;13.74;97.86;101687.63;4944696;29;20061;-87
2021/10/19 05:54:07;;;;;;;34.83;22.95;;;;;;;13.72;97.88;101681.56;4958119;28;20047;-87
2021/10/19 05:56:33;;;;;;;33.35;22.95;;;;;;;13.73;98.10;101684.13;4941957;29;20355;-87
2021/10/19 05:58:58;;;;;;;36.92;22.70;;;;;;;13.75;97.76;101684.06;4953163;29;20115;-87
2021/10/19 06:01:24;;;;;;;31.92;23.25;;;;;;;13.75;97.99;101678.78;4943118;29;20061;-88
2021/10/19 06:03:49;;;;;;;35.47;23.15;;;;;;;13.75;97.98;101669.16;4945548;28;20054;-87
2021/10/19 06:06:15;;;;;;;35.22;24.40;;;;;;;13.75;98.18;101666.50;4942053;29;20088;-87
2021/10/19 06:08:40;;;;;;;34.63;23.95;;;;;;;13.77;98.12;101672.56;4929758;28;20038;-87
2021/10/19 06:11:06;;;;;;;38.67;23.65;;;;;;;13.78;98.04;101676.91;4959519;28;20055;-87
2021/10/19 06:13:32;;;;;;;39.85;24.95;;;;;;;13.78;97.90;101673.41;4942209;29;20338;-87
2021/10/19 06:15:57;;;;;;;37.72;24.80;;;;;;;13.79;98.00;101669.88;4943311;28;20039;-87
2021/10/19 06:18:24;;;;;;;40.28;24.88;;;;;;;13.79;97.94;101676.00;4946875;29;20031;-88
2021/10/19 06:20:52;;;;;;;38.78;24.02;;;;;;;13.82;98.20;101675.00;4932145;28;20042;-87
2021/10/19 06:23:18;;;;;;;37.95;24.67;;;;;;;13.81;98.10;101675.94;4950681;28;20337;-87
2021/10/19 06:25:44;;;;;;;40.92;24.70;;;;;;;13.83;98.28;101674.09;4928358;29;20083;-87
2021/10/19 06:28:09;;;;;;;37.28;24.17;;;;;;;13.83;98.00;101672.31;4944778;28;20050;-87
2021/10/19 06:30:35;;;;;;;41.38;25.15;;;;;;;13.83;98.36;101674.09;4956186;28;20035;-86
2021/10/19 06:33:00;;;;;;;34.58;23.63;;;;;;;13.84;98.15;101675.78;4893669;29;20040;-88
2021/10/19 06:35:26;;;;;;;38.53;23.65;;;;;;;13.83;98.19;101674.94;4942876;28;20031;-87
2021/10/19 06:37:51;;;;;;;39.97;24.55;;;;;;;13.85;98.27;101674.88;4924571;28;20043;-87
2021/10/19 06:40:17;;;;;;;40.65;23.85;;;;;;;13.86;98.29;101673.97;4923674;29;20227;-87
2021/10/19 06:42:42;;;;;;;34.72;22.90;;;;;;;13.85;98.17;101674.88;4947157;29;20350;-87
2021/10/19 06:45:08;;;;;;;35.25;22.55;;;;;;;13.85;98.40;101674.88;4923062;29;20046;-88
2021/10/19 06:47:34;;;;;;;36.63;22.92;;;;;;;13.86;98.33;101681.88;4933236;29;20111;-87
2021/10/19 06:50:00;;;;;;;34.03;21.83;;;;;;;13.87;98.44;101683.56;4946415;28;20035;-87
2021/10/19 06:52:25;;;;;;;36.50;22.77;;;;;;;13.89;98.36;101683.50;4913623;28;20102;-88
2021/10/19 06:54:54;;;;;;;38.35;23.05;;;;;;;13.93;98.80;101687.72;4925733;28;20328;-87
2021/10/19 06:57:22;;;;;;;38.25;23.33;;;;;;;13.94;98.18;101694.72;4941350;29;20094;-88
2021/10/19 06:59:48;;;;;;;35.42;21.60;;;;;;;13.94;98.36;101694.72;4924956;29;20035;-87
2021/10/19 07:02:17;;;;;;;32.58;20.98;;;;;;;13.95;98.45;101689.38;4953362;28;20043;-87
2021/10/19 07:04:49;;;;;;;36.80;21.92;;;;;;;13.96;98.50;101698.97;4930519;28;20354;-87
2021/10/19 07:07:14;;;;;;;36.13;21.60;;;;;;;13.97;98.45;101689.28;4940005;28;20035;-87
2021/10/19 07:09:40;;;;;;;37.03;22.17;;;;;;;13.98;98.47;101698.94;4930345;28;20065;-87
2021/10/19 07:12:05;;;;;;;36.00;21.95;;;;;;;13.98;98.58;101691.88;4970421;28;20039;-87
2021/10/19 07:14:31;;;;;;;35.33;20.83;;;;;;;13.99;98.74;101688.34;4915981;29;20035;-87
2021/10/19 07:16:57;;;;;;;32.63;21.05;;;;;;;14.01;98.58;101688.28;4927336;28;20043;-87
2021/10/19 07:19:23;;;;;;;31.08;20.88;;;;;;;14.02;98.70;101682.06;4943986;28;20035;-88
2021/10/19 07:21:49;;;;;;;30.05;19.85;;;;;;;14.02;98.78;101682.94;4947946;28;20102;-87
2021/10/19 07:24:14;;;;;;;32.05;21.13;;;;;;;14.04;98.87;101695.19;4960569;28;20285;-87
2021/10/19 07:26:40;;;;;;;30.60;19.80;;;;;;;14.05;98.98;101695.13;4939689;28;20035;-87
2021/10/19 07:29:05;;;;;;;32.55;20.80;;;;;;;14.08;98.71;101688.84;4939332;28;20117;-87
2021/10/19 07:31:31;;;;;;;30.38;19.45;;;;;;;14.08;98.77;101678.31;4949131;28;20357;-87
2021/10/19 07:33:56;;;;;;;28.65;18.50;;;;;;;14.10;99.02;101692.28;4954314;28;20042;-87
2021/10/19 07:36:22;;;;;;;31.60;19.55;;;;;;;14.12;98.81;101691.31;4938067;29;20041;-87
2021/10/19 07:38:49;;;;;;;30.05;18.75;;;;;;;14.12;98.73;101693.94;4933736;28;20345;-88
2021/10/19 07:41:15;;;;;;;28.23;19.42;;;;;;;14.14;98.79;101685.97;4941278;28;20314;-87
2021/10/19 07:43:40;;;;;;;27.98;19.02;;;;;;;14.13;98.81;101685.09;4937943;28;20048;-87
2021/10/19 07:46:06;;;;;;;32.20;18.40;;;;;;;14.15;99.23;101683.28;4936409;29;20039;-87
2021/10/19 07:48:31;;;;;;;30.45;18.80;;;;;;;14.18;99.11;101687.56;4933258;28;20023;-87
2021/10/19 07:50:56;;;;;;;30.48;18.42;;;;;;;14.19;99.10;101689.28;4940633;28;20035;-87
2021/10/19 07:53:22;;;;;;;30.38;19.15;;;;;;;14.21;99.17;101687.44;4955045;28;20023;-87
2021/10/19 07:55:47;;;;;;;30.38;18.52;;;;;;;14.22;99.14;101691.78;4940937;29;20242;-87
2021/10/19 07:58:13;;;;;;;29.00;18.13;;;;;;;14.23;99.23;101685.59;4958058;28;20696;-87
2021/10/19 08:00:38;;;;;;;31.35;17.77;;;;;;;14.23;99.31;101680.31;4940489;28;20027;-87
2021/10/19 08:03:04;;;;;;;27.40;17.88;;;;;;;14.25;99.14;101682.91;4940392;29;20035;-88
2021/10/19 08:05:29;;;;;;;29.48;17.95;;;;;;;14.28;99.02;101677.47;4940268;28;20070;-87
2021/10/19 08:08:08;;;;;;;27.67;17.55;;;;;;;14.27;99.13;101676.63;4956906;28;20035;-87
2021/10/19 08:10:34;;;;;;;29.83;17.30;;;;;;;14.29;99.18;101680.06;4945469;28;20027;-87
2021/10/19 08:13:00;;;;;;;30.65;17.80;;;;;;;14.32;99.27;101676.44;4939945;28;20085;-87
2021/10/19 08:15:25;;;;;;;28.02;17.33;;;;;;;14.33;99.53;101672.88;4936980;28;20019;-87
2021/10/19 08:17:51;;;;;;;36.03;18.75;;;;;;;14.34;99.38;101672.81;4920483;28;20062;-87
2021/10/19 08:20:16;;;;;;;33.30;17.95;;;;;;;14.36;99.35;101672.75;4930746;29;20035;-87
2021/10/19 08:22:42;;;;;;;35.22;19.33;;;;;;;14.38;99.46;101676.16;4953519;28;20046;-87
2021/10/19 08:25:09;;;;;;;36.72;18.85;;;;;;;14.37;99.58;101679.72;4967204;28;20062;-87
2021/10/19 08:27:35;;;;;;;33.53;18.52;;;;;;;14.37;99.45;101677.97;4935654;29;20401;-87
2021/10/19 08:30:00;;;;;;;33.85;19.30;;;;;;;14.41;99.48;101683.94;4938238;28;20238;-87
2021/10/19 08:32:26;;;;;;;37.60;20.00;;;;;;;14.46;99.71;101678.47;4934192;28;20038;-87
2021/10/19 08:34:51;;;;;;;38.92;20.73;;;;;;;14.48;99.69;101679.25;4942521;29;20027;-87
2021/10/19 08:37:16;;;;;;;39.05;20.27;;;;;;;14.49;99.74;101680.97;4953424;28;20051;-87
2021/10/19 08:39:42;;;;;;;55.10;21.63;;;;;;;14.49;99.72;101688.88;4937325;29;20082;-87
2021/10/19 08:42:07;;;;;;;39.83;20.60;;;;;;;14.49;99.71;101676.56;4937803;28;20109;-87
2021/10/19 08:44:33;;;;;;;41.95;20.60;;;;;;;14.50;99.75;101680.91;4940060;29;20031;-87
2021/10/19 08:46:58;;;;;;;41.58;20.45;;;;;;;14.50;99.98;101677.44;4936680;28;20220;-87
2021/10/19 08:49:23;;;;;;;35.97;20.25;;;;;;;14.50;99.75;101675.63;4968350;28;20039;-87
2021/10/19 08:51:49;;;;;;;39.97;20.73;;;;;;;14.52;99.82;101680.84;4930961;28;20208;-87
2021/10/19 08:54:16;;;;;;;35.47;19.75;;;;;;;14.51;99.90;101679.97;4939636;28;20035;-87
2021/10/19 08:56:41;;;;;;;36.78;20.08;;;;;;;14.52;99.63;101679.06;4939331;28;20219;-87
2021/10/19 08:59:07;;;;;;;36.20;20.05;;;;;;;14.53;99.80;101683.38;4929331;29;20043;-87
2021/10/19 09:01:36;;;;;;;37.97;19.55;;;;;;;14.55;99.91;101681.56;4920959;29;20035;-87
2021/10/19 09:04:10;;;;;;;38.90;19.77;;;;;;;14.59;99.90;101677.06;4924999;29;20097;-87
2021/10/19 09:06:37;;;;;;;34.78;18.42;;;;;;;14.60;99.91;101678.75;4956974;28;20938;-87
2021/10/19 09:09:07;;;;;;;35.78;19.30;;;;;;;14.62;100.00;101678.69;4956489;28;20035;-87
2021/10/19 09:11:45;;;;;;;33.33;18.65;;;;;;;14.64;100.00;101685.59;4937159;28;20033;-87
2021/10/19 09:14:10;;;;;;;32.10;18.17;;;;;;;14.66;99.89;101690.78;4940737;29;20050;-87
2021/10/19 09:16:43;;;;;;;34.38;19.10;;;;;;;14.67;100.00;101689.88;4935201;28;20035;-86
2021/10/19 09:19:10;;;;;;;44.38;20.30;;;;;;;14.68;99.86;101684.56;4950945;28;20047;-87
2021/10/19 09:21:35;;;;;;;38.08;19.00;;;;;;;14.71;99.85;101689.66;4934223;29;20042;-86
2021/10/19 09:24:19;;;;;;;49.20;20.90;;;;;;;14.77;100.00;101699.09;4935319;28;20071;-87
2021/10/19 09:27:11;;;;;;;45.78;21.17;;;;;;;14.78;99.89;101691.09;4957259;28;20334;-87
2021/10/19 09:29:45;;;;;;;48.28;21.13;;;;;;;14.82;100.00;101696.25;4942079;28;20039;-87
2021/10/19 09:32:12;;;;;;;55.15;21.80;;;;;;;14.84;100.00;101697.88;4936928;29;20099;-87
2021/10/19 09:34:38;;;;;;;54.65;21.92;;;;;;;14.85;100.00;101691.69;4950237;28;20266;-87
2021/10/19 09:37:06;;;;;;;50.53;22.20;;;;;;;14.89;100.00;101695.91;4928276;29;20052;-87
2021/10/19 09:39:58;;;;;;;53.83;22.17;;;;;;;14.94;100.00;101699.19;4950404;29;20048;-87
2021/10/19 09:42:25;;;;;;;53.58;23.30;;;;;;;14.95;100.00;101698.28;4940400;28;20055;-87
2021/10/19 09:44:58;;;;;;;50.50;22.45;;;;;;;14.99;100.00;101701.63;4923423;29;20055;-86
2021/10/19 09:47:42;;;;;;;52.15;22.17;;;;;;;15.03;100.00;101697.06;4955327;28;20081;-87
2021/10/19 09:50:08;;;;;;;55.03;23.67;;;;;;;15.06;100.00;101700.44;4946031;28;20039;-87
2021/10/19 09:52:37;;;;;;;56.22;23.40;;;;;;;15.08;100.00;101701.22;4933545;29;20118;-87
2021/10/19 09:55:05;;;;;;;56.13;22.55;;;;;;;15.10;100.00;101694.06;4947230;28;20035;-87
2021/10/19 09:57:30;;;;;;;52.20;22.63;;;;;;;15.11;100.00;101695.78;4936711;28;20429;-87
2021/10/19 09:59:56;;;;;;;45.15;20.85;;;;;;;15.13;100.00;101698.34;4951331;28;20047;-86
2021/10/19 10:02:21;;;;;;;47.05;20.52;;;;;;;15.15;100.00;101688.56;4941713;29;20418;-87
2021/10/19 10:04:47;;;;;;;43.22;19.00;;;;;;;15.19;100.00;101686.66;4950782;29;20071;-87
2021/10/19 10:07:12;;;;;;;43.45;19.60;;;;;;;15.19;100.00;101692.81;4936909;28;20388;-87
2021/10/19 10:09:38;;;;;;;41.05;18.55;;;;;;;15.22;100.00;101686.50;4937895;29;20033;-87
2021/10/19 10:12:07;;;;;;;38.90;18.25;;;;;;;15.25;100.00;101697.78;4937312;28;20051;-87
2021/10/19 10:14:46;;;;;;;42.03;18.92;;;;;;;15.26;100.00;101699.50;4947637;28;20035;-86
2021/10/19 10:17:12;;;;;;;46.63;19.70;;;;;;;15.27;100.00;101695.06;4932029;29;20072;-87
2021/10/19 10:19:37;;;;;;;47.58;20.20;;;;;;;15.28;100.00;101697.66;4947995;28;20042;-86
2021/10/19 10:22:28;;;;;;;48.22;21.27;;;;;;;15.30;100.00;101693.16;4922707;29;20039;-87
2021/10/19 10:25:12;;;;;;;44.03;19.48;;;;;;;15.31;100.00;101704.56;4956829;29;20055;-87
2021/10/19 10:27:38;;;;;;;58.75;21.13;;;;;;;15.32;100.00;101696.56;4957885;28;20069;-87
2021/10/19 10:30:16;;;;;;;53.88;20.92;;;;;;;15.32;100.00;101701.00;4940432;28;20234;-87
2021/10/19 10:32:42;;;;;;;48.03;20.42;;;;;;;15.34;100.00;101696.50;4942314;28;20043;-87
2021/10/19 10:35:12;;;;;;;51.35;21.63;;;;;;;15.32;100.00;101687.81;4935975;29;20036;-87
2021/10/19 10:37:40;;;;;;;48.20;20.98;;;;;;;15.33;100.00;101693.03;4940349;29;20473;-87
2021/10/19 10:40:56;;;;;;;55.78;23.05;;;;;;;15.34;100.00;101689.44;4936403;29;20039;-87
2021/10/19 10:47:22;;;;;;;50.75;21.83;;;;;;;15.36;100.00;101695.50;4947945;29;20058;-87
2021/10/19 10:50:23;;;;;;;52.55;20.88;;;;;;;15.39;100.00;101688.34;4942770;28;20122;-87
2021/10/19 10:52:58;;;;;;;51.95;21.13;;;;;;;15.39;100.00;101689.22;4910461;29;20031;-87
2021/10/19 10:55:23;;;;;;;45.63;20.05;;;;;;;15.39;100.00;101681.31;4958390;29;20082;-87
2021/10/19 10:57:49;;;;;;;44.60;19.88;;;;;;;15.43;100.00;101684.66;4930616;28;20039;-87
2021/10/19 11:00:14;;;;;;;52.90;20.10;;;;;;;15.45;100.00;101682.81;4931950;29;20315;-87
2021/10/19 11:02:40;;;;;;;48.90;19.63;;;;;;;15.48;100.00;101686.16;4957796;28;20034;-87
2021/10/19 11:05:05;;;;;;;48.03;19.30;;;;;;;15.52;100.00;101700.91;4961065;28;20062;-87
2021/10/19 11:07:34;;;;;;;41.80;18.83;;;;;;;15.53;100.00;101696.47;4942927;29;20128;-87
2021/10/19 11:10:16;;;;;;;46.47;18.65;;;;;;;15.57;100.00;101691.91;4942078;28;20023;-87
2021/10/19 11:12:42;;;;;;;48.80;20.05;;;;;;;15.58;100.00;101691.84;4939449;28;20330;-87
2021/10/19 11:15:12;;;;;;;48.83;21.08;;;;;;;15.59;100.00;101695.31;4947098;28;20038;-87